createdAt,value
2018-04-01T00:01:15.356Z,80.40
2018-04-01T00:03:42.377Z,80.50
2018-04-01T00:06:09.379Z,80.50
2018-04-01T00:08:36.397Z,80.30
2018-04-01T00:11:03.441Z,80.00
2018-04-01T00:13:30.490Z,79.60
2018-04-01T00:15:57.489Z,79.50
2018-04-01T00:18:24.479Z,79.30
2018-04-01T00:20:52.393Z,79.10
2018-04-01T00:23:19.447Z,79.00
2018-04-01T00:25:46.441Z,79.20
2018-04-01T00:28:13.551Z,79.30
2018-04-01T00:30:40.546Z,79.50
2018-04-01T00:33:07.557Z,79.70
2018-04-01T00:35:34.588Z,79.90
2018-04-01T00:38:01.597Z,79.90
2018-04-01T00:40:28.628Z,79.90
2018-04-01T00:42:55.665Z,79.50
2018-04-01T00:45:22.667Z,79.50
2018-04-01T00:47:49.688Z,79.70
2018-04-01T00:50:16.707Z,79.70
2018-04-01T00:52:43.763Z,79.40
2018-04-01T00:55:10.757Z,79.30
2018-04-01T00:57:37.757Z,78.80
2018-04-01T01:00:05.565Z,78.20
2018-04-01T01:02:32.559Z,78.20
2018-04-01T01:05:00.311Z,78.30
2018-04-01T01:07:28.109Z,78.40
2018-04-01T01:09:55.125Z,78.30
2018-04-01T01:12:22.928Z,78.60
2018-04-01T01:14:49.913Z,78.50
2018-04-01T01:17:16.907Z,78.40
2018-04-01T01:19:44.701Z,78.40
2018-04-01T01:22:11.765Z,78.30
2018-04-01T01:24:38.753Z,78.40
2018-04-01T01:27:05.787Z,78.40
2018-04-01T01:29:32.840Z,78.40
2018-04-01T01:31:59.878Z,78.50
2018-04-01T01:34:26.889Z,78.10
2018-04-01T01:36:53.908Z,77.90
2018-04-01T01:39:21.144Z,77.20
2018-04-01T01:41:48.173Z,76.20
2018-04-01T01:44:15.925Z,74.90
2018-04-01T01:46:42.956Z,74.90
2018-04-01T01:49:09.983Z,74.30
2018-04-01T01:51:36.994Z,74.00
2018-04-01T01:54:04.018Z,73.70
2018-04-01T01:56:31.773Z,73.70
2018-04-01T01:58:58.773Z,73.60
2018-04-01T02:01:25.813Z,73.40
2018-04-01T02:03:52.781Z,74.70
2018-04-01T02:06:20.591Z,74.20
2018-04-01T02:08:47.638Z,74.20
2018-04-01T02:11:14.669Z,74.00
2018-04-01T02:13:41.733Z,74.30
2018-04-01T02:16:09.500Z,74.50
2018-04-01T02:18:36.972Z,74.40
2018-04-01T02:21:03.964Z,74.50
2018-04-01T02:23:31.062Z,74.70
2018-04-01T02:25:58.059Z,74.80
2018-04-01T02:28:25.106Z,74.90
2018-04-01T02:30:52.156Z,75.40
2018-04-01T02:33:19.160Z,75.60
2018-04-01T02:35:47.787Z,76.20
2018-04-01T02:38:14.799Z,75.90
2018-04-01T02:40:42.561Z,76.40
2018-04-01T02:43:09.658Z,76.30
2018-04-01T02:45:36.648Z,76.70
2018-04-01T02:48:04.451Z,76.10
2018-04-01T02:50:31.515Z,76.00
2018-04-01T02:52:58.561Z,75.70
2018-04-01T02:55:25.610Z,75.70
2018-04-01T02:57:52.610Z,76.00
2018-04-01T03:00:19.594Z,75.20
2018-04-01T03:02:47.355Z,73.30
2018-04-01T03:05:14.357Z,73.20
2018-04-01T03:07:41.335Z,72.20
2018-04-01T03:10:08.395Z,71.60
2018-04-01T03:12:36.150Z,70.30
2018-04-01T03:15:03.144Z,70.20
2018-04-01T03:17:30.147Z,69.70
2018-04-01T03:19:57.150Z,69.40
2018-04-01T03:22:24.127Z,69.30
2018-04-01T03:24:51.126Z,69.00
2018-04-01T03:27:18.122Z,68.90
2018-04-01T03:29:45.922Z,68.50
2018-04-01T03:32:12.927Z,68.50
2018-04-01T03:34:39.908Z,68.10
2018-04-01T03:37:06.889Z,68.90
2018-04-01T03:39:33.895Z,67.70
2018-04-01T03:42:00.904Z,67.70
2018-04-01T03:44:27.915Z,67.70
2018-04-01T03:46:54.958Z,67.50
2018-04-01T03:49:22.723Z,67.40
2018-04-01T03:51:49.738Z,67.20
2018-04-01T03:54:16.709Z,67.20
2018-04-01T03:56:43.702Z,67.00
2018-04-01T03:59:10.968Z,67.00
2018-04-01T04:01:37.973Z,67.10
2018-04-01T04:04:05.737Z,67.50
2018-04-01T04:06:32.774Z,67.40
2018-04-01T04:08:59.807Z,67.50
2018-04-01T04:11:26.810Z,67.40
2018-04-01T04:13:54.600Z,67.70
2018-04-01T04:16:21.618Z,67.70
2018-04-01T04:18:48.628Z,67.70
2018-04-01T04:21:16.432Z,67.80
2018-04-01T04:23:43.434Z,67.70
2018-04-01T04:26:10.540Z,67.90
2018-04-01T04:28:38.338Z,68.20
2018-04-01T04:31:05.332Z,68.30
2018-04-01T04:33:32.354Z,68.30
2018-04-01T04:35:59.878Z,68.20
2018-04-01T04:38:27.675Z,68.40
2018-04-01T04:40:54.697Z,68.30
2018-04-01T04:43:22.495Z,68.40
2018-04-01T04:45:49.544Z,69.10
2018-04-01T04:48:16.667Z,68.50
2018-04-01T04:50:43.696Z,68.30
2018-04-01T04:53:10.758Z,68.20
2018-04-01T04:55:37.805Z,68.10
2018-04-01T04:58:04.921Z,68.30
2018-04-01T05:00:31.905Z,68.20
2018-04-01T05:02:58.911Z,68.30
2018-04-01T05:05:25.927Z,68.40
2018-04-01T05:07:53.299Z,68.20
2018-04-01T05:10:21.066Z,68.30
2018-04-01T05:12:48.859Z,68.10
2018-04-01T05:15:15.885Z,68.10
2018-04-01T05:17:43.686Z,68.10
2018-04-01T05:20:10.669Z,68.10
2018-04-01T05:22:37.653Z,68.40
2018-04-01T05:25:05.423Z,68.80
2018-04-01T05:27:32.403Z,68.80
2018-04-01T05:29:59.391Z,68.80
2018-04-01T05:32:26.372Z,68.80
2018-04-01T05:34:53.372Z,68.10
2018-04-01T05:37:20.401Z,68.90
2018-04-01T05:39:47.510Z,69.20
2018-04-01T05:42:14.497Z,69.10
2018-04-01T05:44:41.493Z,69.00
2018-04-01T05:47:09.246Z,69.10
2018-04-01T05:49:36.337Z,69.00
2018-04-01T05:52:03.349Z,69.00
2018-04-01T05:54:31.154Z,69.30
2018-04-01T05:56:58.166Z,69.10
2018-04-01T05:59:25.937Z,69.00
2018-04-01T06:01:52.963Z,69.00
2018-04-01T06:04:19.964Z,69.00
2018-04-01T06:06:47.025Z,69.20
2018-04-01T06:09:14.004Z,69.30
2018-04-01T06:11:41.006Z,69.30
2018-04-01T06:14:08.034Z,69.40
2018-04-01T06:16:35.155Z,69.30
2018-04-01T06:19:02.150Z,69.40
2018-04-01T06:21:29.174Z,69.50
2018-04-01T06:23:56.178Z,70.10
2018-04-01T06:26:23.294Z,69.70
2018-04-01T06:28:50.306Z,69.80
2018-04-01T06:31:18.114Z,70.70
2018-04-01T06:33:45.467Z,70.60
2018-04-01T06:36:12.504Z,71.20
2018-04-01T06:38:40.402Z,71.80
2018-04-01T06:41:07.366Z,71.80
2018-04-01T06:43:35.010Z,72.00
2018-04-01T06:46:02.768Z,72.40
2018-04-01T06:48:29.758Z,72.40
2018-04-01T06:50:56.750Z,72.50
2018-04-01T06:53:23.782Z,73.10
2018-04-01T06:55:51.548Z,72.80
2018-04-01T06:58:18.584Z,72.80
2018-04-01T07:00:46.543Z,72.70
2018-04-01T07:03:13.550Z,72.50
2018-04-01T07:05:40.538Z,72.40
2018-04-01T07:08:08.310Z,71.60
2018-04-01T07:10:35.302Z,71.60
2018-04-01T07:13:02.320Z,71.40
2018-04-01T07:15:29.374Z,71.40
2018-04-01T07:17:56.371Z,71.10
2018-04-01T07:20:23.416Z,71.00
2018-04-01T07:22:50.814Z,70.80
2018-04-01T07:25:17.912Z,70.80
2018-04-01T07:27:45.716Z,71.00
2018-04-01T07:30:13.106Z,70.30
2018-04-01T07:32:40.223Z,69.40
2018-04-01T07:35:07.235Z,69.40
2018-04-01T07:37:34.329Z,69.10
2018-04-01T07:40:01.378Z,69.50
2018-04-01T07:42:28.374Z,68.40
2018-04-01T07:44:55.369Z,68.00
2018-04-01T07:47:22.840Z,68.20
2018-04-01T07:49:49.817Z,67.60
2018-04-01T07:52:17.039Z,67.70
2018-04-01T07:54:44.080Z,67.40
2018-04-01T07:57:11.105Z,67.40
2018-04-01T07:59:38.126Z,66.90
2018-04-01T08:02:05.926Z,66.00
2018-04-01T08:04:32.918Z,66.00
2018-04-01T08:07:00.698Z,66.00
2018-04-01T08:09:27.756Z,65.90
2018-04-01T08:11:55.114Z,65.10
2018-04-01T08:14:22.137Z,64.40
2018-04-01T08:16:49.167Z,63.90
2018-04-01T08:19:16.180Z,63.90
2018-04-01T08:21:43.189Z,64.20
2018-04-01T08:24:11.013Z,64.00
2018-04-01T08:26:38.105Z,64.00
2018-04-01T08:29:05.127Z,63.60
2018-04-01T08:31:32.891Z,64.20
2018-04-01T08:33:59.897Z,64.20
2018-04-01T08:36:26.925Z,64.90
2018-04-01T08:38:53.938Z,64.80
2018-04-01T08:41:21.717Z,64.80
2018-04-01T08:43:48.785Z,64.80
2018-04-01T08:46:15.799Z,65.10
2018-04-01T08:48:42.899Z,65.10
2018-04-01T08:51:10.024Z,65.60
2018-04-01T08:53:37.033Z,64.70
2018-04-01T08:56:04.103Z,65.00
2018-04-01T08:58:31.104Z,65.30
2018-04-01T09:00:58.213Z,65.10
2018-04-01T09:03:25.559Z,63.10
2018-04-01T09:05:52.554Z,62.30
2018-04-01T09:08:19.570Z,61.20
2018-04-01T09:10:47.353Z,60.10
2018-04-01T09:13:15.139Z,60.20
2018-04-01T09:15:42.123Z,60.10
2018-04-01T09:18:09.113Z,59.00
2018-04-01T09:20:36.919Z,57.80
2018-04-01T09:23:03.933Z,57.80
2018-04-01T09:25:31.683Z,57.40
2018-04-01T09:27:58.674Z,57.20
2018-04-01T09:30:25.723Z,56.30
2018-04-01T09:32:52.747Z,55.60
2018-04-01T09:35:19.751Z,54.20
2018-04-01T09:37:46.775Z,53.70
2018-04-01T09:40:13.907Z,53.60
2018-04-01T09:42:40.921Z,53.00
2018-04-01T09:45:08.697Z,51.70
2018-04-01T09:47:36.487Z,51.80
2018-04-01T09:50:03.531Z,51.80
2018-04-01T09:52:31.106Z,51.80
2018-04-01T09:54:58.096Z,51.40
2018-04-01T09:57:25.139Z,51.70
2018-04-01T09:59:52.125Z,51.70
2018-04-01T10:02:19.597Z,52.30
2018-04-01T10:04:47.086Z,52.40
2018-04-01T10:07:14.581Z,52.30
2018-04-01T10:09:43.004Z,52.80
2018-04-01T10:12:10.477Z,52.80
2018-04-01T10:14:37.948Z,50.80
2018-04-01T10:17:06.215Z,51.50
2018-04-01T10:19:34.454Z,54.60
2018-04-01T10:22:01.986Z,54.60
2018-04-01T10:24:29.524Z,56.40
2018-04-01T10:26:56.999Z,57.40
2018-04-01T10:29:24.513Z,57.90
2018-04-01T10:31:52.013Z,57.40
2018-04-01T10:34:19.539Z,58.90
2018-04-01T10:36:47.026Z,63.40
2018-04-01T10:39:14.520Z,69.90
2018-04-01T10:41:42.055Z,75.30
2018-04-01T10:44:09.617Z,78.90
2018-04-01T10:46:37.122Z,80.70
2018-04-01T10:49:04.606Z,82.60
2018-04-01T10:51:32.932Z,84.50
2018-04-01T10:53:59.975Z,84.50
2018-04-01T10:56:27.016Z,85.10
2018-04-01T10:58:54.053Z,86.50
2018-04-01T11:01:21.072Z,89.30
2018-04-01T11:03:48.960Z,89.40
2018-04-01T11:06:15.998Z,89.30
2018-04-01T11:08:43.122Z,89.60
2018-04-01T11:11:10.130Z,90.00
2018-04-01T11:13:37.894Z,90.70
2018-04-01T11:16:04.880Z,90.60
2018-04-01T11:18:31.870Z,91.00
2018-04-01T11:20:59.628Z,91.40
2018-04-01T11:23:26.646Z,91.40
2018-04-01T11:25:53.758Z,91.00
2018-04-01T11:28:20.824Z,90.70
2018-04-01T11:30:47.868Z,90.70
2018-04-01T11:33:14.912Z,90.50
2018-04-01T11:35:41.968Z,90.40
2018-04-01T11:38:09.084Z,90.40
2018-04-01T11:40:36.069Z,90.60
2018-04-01T11:43:03.188Z,90.70
2018-04-01T11:45:30.202Z,90.50
2018-04-01T11:47:57.222Z,90.30
2018-04-01T11:50:24.254Z,90.50
2018-04-01T11:52:51.282Z,90.90
2018-04-01T11:55:19.067Z,91.50
2018-04-01T11:57:46.850Z,91.40
2018-04-01T12:00:14.936Z,90.40
2018-04-01T12:02:41.951Z,90.40
2018-04-01T12:05:09.738Z,89.60
2018-04-01T12:07:36.724Z,88.90
2018-04-01T12:10:03.729Z,88.30
2018-04-01T12:12:30.834Z,89.70
2018-04-01T12:14:57.879Z,90.00
2018-04-01T12:17:24.895Z,90.20
2018-04-01T12:19:51.909Z,90.10
2018-04-01T12:22:18.922Z,90.40
2018-04-01T12:24:45.921Z,90.80
2018-04-01T12:27:12.912Z,90.50
2018-04-01T12:29:39.970Z,90.80
2018-04-01T12:32:07.016Z,89.80
2018-04-01T12:34:34.028Z,86.70
2018-04-01T12:37:01.032Z,90.30
2018-04-01T12:39:28.048Z,91.50
2018-04-01T12:41:55.180Z,92.30
2018-04-01T12:44:22.184Z,92.90
2018-04-01T12:46:50.188Z,93.70
2018-04-01T12:49:17.253Z,93.70
2018-04-01T12:51:44.283Z,93.90
2018-04-01T12:54:11.280Z,94.30
2018-04-01T12:56:38.669Z,94.50
2018-04-01T12:59:05.663Z,94.30
2018-04-01T13:01:32.663Z,94.00
2018-04-01T13:03:59.730Z,93.50
2018-04-01T13:06:27.312Z,93.30
2018-04-01T13:08:54.359Z,93.50
2018-04-01T13:11:21.346Z,93.60
2018-04-01T13:13:48.356Z,93.90
2018-04-01T13:16:16.157Z,93.80
2018-04-01T13:18:43.157Z,93.80
2018-04-01T13:21:10.153Z,93.70
2018-04-01T13:23:37.176Z,93.70
2018-04-01T13:26:04.187Z,93.60
2018-04-01T13:28:31.343Z,93.50
2018-04-01T13:30:58.352Z,93.40
2018-04-01T13:33:26.110Z,93.30
2018-04-01T13:35:53.903Z,93.40
2018-04-01T13:38:20.929Z,93.40
2018-04-01T13:40:47.962Z,93.20
2018-04-01T13:43:14.977Z,93.50
2018-04-01T13:45:42.774Z,93.80
2018-04-01T13:48:09.761Z,93.80
2018-04-01T13:50:36.826Z,93.30
2018-04-01T13:53:03.823Z,93.20
2018-04-01T13:55:30.828Z,92.40
2018-04-01T13:57:58.666Z,92.30
2018-04-01T14:00:26.847Z,92.30
2018-04-01T14:02:54.615Z,92.10
2018-04-01T14:05:22.394Z,92.40
2018-04-01T14:07:49.383Z,92.40
2018-04-01T14:10:16.407Z,92.40
2018-04-01T14:12:44.315Z,93.10
2018-04-01T14:15:11.366Z,93.10
2018-04-01T14:17:38.419Z,93.20
2018-04-01T14:20:05.422Z,93.20
2018-04-01T14:22:33.195Z,93.10
2018-04-01T14:25:00.979Z,92.80
2018-04-01T14:27:27.981Z,92.80
2018-04-01T14:29:55.097Z,93.00
2018-04-01T14:32:22.080Z,93.10
2018-04-01T14:34:49.092Z,93.00
2018-04-01T14:37:16.116Z,92.90
2018-04-01T14:39:43.103Z,92.50
2018-04-01T14:42:10.135Z,92.30
2018-04-01T14:44:37.154Z,92.60
2018-04-01T14:47:04.194Z,92.50
2018-04-01T14:49:31.205Z,92.80
2018-04-01T14:51:59.105Z,92.50
2018-04-01T14:54:26.151Z,92.50
2018-04-01T14:56:53.247Z,92.70
2018-04-01T14:59:20.390Z,93.00
2018-04-01T15:01:47.441Z,93.10
2018-04-01T15:04:14.473Z,92.30
2018-04-01T15:06:41.508Z,92.20
2018-04-01T15:09:08.554Z,92.20
2018-04-01T15:11:35.544Z,91.70
2018-04-01T15:14:02.651Z,92.10
2018-04-01T15:16:30.404Z,92.40
2018-04-01T15:18:57.398Z,92.30
2018-04-01T15:21:24.374Z,92.30
2018-04-01T15:23:51.398Z,92.40
2018-04-01T15:26:18.405Z,92.60
2018-04-01T15:28:46.168Z,92.70
2018-04-01T15:31:13.933Z,93.00
2018-04-01T15:33:41.678Z,93.50
2018-04-01T15:36:09.676Z,93.50
2018-04-01T15:38:37.466Z,93.10
2018-04-01T15:41:04.478Z,93.00
2018-04-01T15:43:32.234Z,93.30
2018-04-01T15:45:59.230Z,93.30
2018-04-01T15:48:26.965Z,93.10
2018-04-01T15:50:53.985Z,93.10
2018-04-01T15:53:21.016Z,93.00
2018-04-01T15:55:48.026Z,92.90
2018-04-01T15:58:15.803Z,92.80
2018-04-01T16:00:43.575Z,92.90
2018-04-01T16:03:11.371Z,93.10
2018-04-01T16:05:38.348Z,93.10
2018-04-01T16:08:05.350Z,93.20
2018-04-01T16:10:32.359Z,93.20
2018-04-01T16:12:59.348Z,93.30
2018-04-01T16:15:27.117Z,93.40
2018-04-01T16:17:54.100Z,93.40
2018-04-01T16:20:21.088Z,93.30
2018-04-01T16:22:48.067Z,93.30
2018-04-01T16:25:15.054Z,93.50
2018-04-01T16:27:42.051Z,93.70
2018-04-01T16:30:09.053Z,94.00
2018-04-01T16:32:36.040Z,94.20
2018-04-01T16:35:03.044Z,94.30
2018-04-01T16:37:30.166Z,94.00
2018-04-01T16:39:57.217Z,94.30
2018-04-01T16:42:24.263Z,94.20
2018-04-01T16:44:51.270Z,94.00
2018-04-01T16:47:18.278Z,93.70
2018-04-01T16:49:45.420Z,93.60
2018-04-01T16:52:12.564Z,93.70
2018-04-01T16:54:39.610Z,93.70
2018-04-01T16:57:07.393Z,93.60
2018-04-01T16:59:34.409Z,93.60
2018-04-01T17:02:01.516Z,93.70
2018-04-01T17:04:28.519Z,93.80
2018-04-01T17:06:55.583Z,93.80
2018-04-01T17:09:22.637Z,93.80
2018-04-01T17:11:49.633Z,94.00
2018-04-01T17:14:17.428Z,94.20
2018-04-01T17:16:44.457Z,94.20
2018-04-01T17:19:11.468Z,94.20
2018-04-01T17:21:39.281Z,94.10
2018-04-01T17:24:06.419Z,94.00
2018-04-01T17:26:33.426Z,94.10
2018-04-01T17:29:00.453Z,94.30
2018-04-01T17:31:27.469Z,94.30
2018-04-01T17:33:54.496Z,94.40
2018-04-01T17:36:21.509Z,94.30
2018-04-01T17:38:48.538Z,94.30
2018-04-01T17:41:15.602Z,94.30
2018-04-01T17:43:43.377Z,94.20
2018-04-01T17:46:14.739Z,94.20
2018-04-01T17:48:41.782Z,94.00
2018-04-01T17:51:09.501Z,94.10
2018-04-01T17:53:36.493Z,94.10
2018-04-01T17:56:03.518Z,94.10
2018-04-01T17:58:31.624Z,94.10
2018-04-01T18:00:58.644Z,94.10
2018-04-01T18:03:26.432Z,94.10
2018-04-01T18:05:53.507Z,94.10
2018-04-01T18:08:20.534Z,94.10
2018-04-01T18:10:47.539Z,94.00
2018-04-01T18:13:15.285Z,94.00
2018-04-01T18:15:42.322Z,93.90
2018-04-01T18:18:09.375Z,94.10
2018-04-01T18:20:36.377Z,94.20
2018-04-01T18:23:03.493Z,94.30
2018-04-01T18:25:30.540Z,94.50
2018-04-01T18:27:57.588Z,94.50
2018-04-01T18:30:24.624Z,94.50
2018-04-01T18:32:51.669Z,94.50
2018-04-01T18:35:18.688Z,94.50
2018-04-01T18:37:45.710Z,94.60
2018-04-01T18:40:12.729Z,94.60
2018-04-01T18:42:39.844Z,94.70
2018-04-01T18:45:06.908Z,94.70
2018-04-01T18:47:34.796Z,94.80
2018-04-01T18:50:01.861Z,94.70
2018-04-01T18:52:28.906Z,94.80
2018-04-01T18:54:55.956Z,94.80
2018-04-01T18:57:22.993Z,94.80
2018-04-01T18:59:50.015Z,94.80
2018-04-01T19:02:17.030Z,94.80
2018-04-01T19:04:44.941Z,94.80
2018-04-01T19:07:11.952Z,94.80
2018-04-01T19:09:39.014Z,94.90
2018-04-01T19:12:06.019Z,94.90
2018-04-01T19:14:33.909Z,94.90
2018-04-01T19:17:05.148Z,94.90
2018-04-01T19:19:32.674Z,94.90
2018-04-01T19:22:00.146Z,95.00
2018-04-01T19:24:27.647Z,95.00
2018-04-01T19:26:55.914Z,95.00
2018-04-01T19:29:24.237Z,95.10
2018-04-01T19:31:51.726Z,95.00
2018-04-01T19:34:19.242Z,95.10
2018-04-01T19:36:46.749Z,95.10
2018-04-01T19:39:15.371Z,95.10
2018-04-01T19:41:42.954Z,95.10
2018-04-01T19:44:10.460Z,95.20
2018-04-01T19:46:37.972Z,95.20
2018-04-01T19:49:05.462Z,95.20
2018-04-01T19:51:32.976Z,95.30
2018-04-01T19:54:01.243Z,95.30
2018-04-01T19:56:28.816Z,95.30
2018-04-01T19:58:56.397Z,95.30
2018-04-01T20:01:23.950Z,95.20
2018-04-01T20:03:51.508Z,95.20
2018-04-01T20:06:19.015Z,95.20
2018-04-01T20:08:46.678Z,95.20
2018-04-01T20:11:14.228Z,95.20
2018-04-01T20:13:41.720Z,95.20
2018-04-01T20:16:09.254Z,95.20
2018-04-01T20:18:37.564Z,95.20
2018-04-01T20:21:05.075Z,95.10
2018-04-01T20:23:33.343Z,95.30
2018-04-01T20:26:00.842Z,95.30
2018-04-01T20:28:28.344Z,95.30
2018-04-01T20:30:55.883Z,95.30
2018-04-01T20:33:23.535Z,95.40
2018-04-01T20:35:51.052Z,95.30
2018-04-01T20:38:18.880Z,95.30
2018-04-01T20:40:47.250Z,95.20
2018-04-01T20:43:15.042Z,95.20
2018-04-01T20:45:42.893Z,95.10
2018-04-01T20:48:10.536Z,94.80
2018-04-01T20:50:38.883Z,95.10
2018-04-01T20:53:06.762Z,95.00
2018-04-01T20:55:34.521Z,95.10
2018-04-01T20:58:02.268Z,95.10
2018-04-01T21:00:29.779Z,95.20
2018-04-01T21:02:58.734Z,95.30
2018-04-01T21:05:27.011Z,95.30
2018-04-01T21:07:56.283Z,95.30
2018-04-01T21:10:23.825Z,95.30
2018-04-01T21:12:51.358Z,95.30
2018-04-01T21:15:18.952Z,95.30
2018-04-01T21:17:46.529Z,95.30
2018-04-01T21:20:14.084Z,95.30
2018-04-01T21:22:41.740Z,95.30
2018-04-01T21:25:09.298Z,95.30
2018-04-01T21:27:37.543Z,95.40
2018-04-01T21:30:05.074Z,95.30
2018-04-01T21:32:32.592Z,95.40
2018-04-01T21:35:00.871Z,95.40
2018-04-01T21:37:28.490Z,95.40
2018-04-01T21:39:55.973Z,95.40
2018-04-01T21:42:23.499Z,95.50
2018-04-01T21:44:51.094Z,95.50
2018-04-01T21:47:19.404Z,95.50
2018-04-01T21:49:46.946Z,95.50
2018-04-01T21:52:14.547Z,95.50
2018-04-01T21:54:42.041Z,95.50
2018-04-01T21:57:09.562Z,95.50
2018-04-01T21:59:37.833Z,95.50
2018-04-01T22:02:05.360Z,95.50
2018-04-01T22:04:32.915Z,95.50
2018-04-01T22:07:00.449Z,95.50
2018-04-01T22:09:27.977Z,95.50
2018-04-01T22:11:56.253Z,95.50
2018-04-01T22:14:26.383Z,95.60
2018-04-01T22:16:53.923Z,95.60
2018-04-01T22:19:21.433Z,95.60
2018-04-01T22:21:49.545Z,95.60
2018-04-01T22:24:17.479Z,95.70
2018-04-01T22:26:45.031Z,95.80
2018-04-01T22:29:12.654Z,96.00
2018-04-01T22:31:40.187Z,95.80
2018-04-01T22:34:08.491Z,95.90
2018-04-01T22:36:35.991Z,95.90
2018-04-01T22:39:04.305Z,95.90
2018-04-01T22:41:31.845Z,95.80
2018-04-01T22:43:59.421Z,95.80
2018-04-01T22:46:27.000Z,95.80
2018-04-01T22:48:54.526Z,95.80
2018-04-01T22:51:22.027Z,95.80
2018-04-01T22:53:50.313Z,95.90
2018-04-01T22:56:17.847Z,95.80
2018-04-01T22:58:46.162Z,95.80
2018-04-01T23:01:13.725Z,95.80
2018-04-01T23:03:41.224Z,95.80
2018-04-01T23:06:09.347Z,95.80
2018-04-01T23:08:36.847Z,95.80
2018-04-01T23:11:04.472Z,95.80
2018-04-01T23:13:31.984Z,95.80
2018-04-01T23:15:59.473Z,95.70
2018-04-01T23:18:27.123Z,95.80
2018-04-01T23:20:54.777Z,95.70
2018-04-01T23:23:22.336Z,95.80
2018-04-01T23:25:49.846Z,95.70
2018-04-01T23:28:17.396Z,95.70
2018-04-01T23:30:44.900Z,95.70
2018-04-01T23:33:12.434Z,95.80
2018-04-01T23:35:39.971Z,95.80
2018-04-01T23:38:07.498Z,95.80
2018-04-01T23:40:35.018Z,95.70
2018-04-01T23:43:03.297Z,95.70
2018-04-01T23:45:31.607Z,95.70
2018-04-01T23:47:59.096Z,95.70
2018-04-01T23:50:33.936Z,95.70
2018-04-01T23:53:01.644Z,95.70
2018-04-01T23:55:29.324Z,95.70
2018-04-01T23:57:57.430Z,95.70
